KJZI

Charleston Executive Airport

Charleston, South Carolina, USA
METAR KJZI 141335Z AUTO 21004KT 9SM CLR 28/24 A3004 RMK AO2
Observed Flight Rules
Aug-14 @ 13:35 UTC (7 minutes ago) Visual Flight Rules
Wind Visibility Clouds
210° at 4 knots 9 miles
  • Clear skies
Temperatures Readings
Current 28°C / 82°F
Dewpoint 24°C / 75°F
Humidity 79%
Altimeter 30.04" Hg
Pressure 1017 hPa
Elevation 6
METAR KJZI 141335Z AUTO 21004KT 9SM CLR 28/24 A3004 RMK AO2
Observed Flight Rules
Aug-14 @ 13:35 UTC
(7 minutes ago)
VFR
Wind Visibility
210° at 4 knots 9 miles
Clouds
  • Clear skies
Temperature Dewpoint
28°C / 82°F 24°C / 75°F
Humidity Altimeter Pressure
79% 30.04" Hg 1017 hPa